sensor_id;sensor_type;location;lat;lon;timestamp;P1;durP1;ratioP1;P2;durP2;ratioP2
59207;SDS011;44977;53.132;6.408;2022-10-16T00:02:59;9.30;;;2.40;;
59207;SDS011;44977;53.132;6.408;2022-10-16T00:08:00;9.15;;;2.47;;
59207;SDS011;44977;53.132;6.408;2022-10-16T00:13:00;6.97;;;2.30;;
59207;SDS011;44977;53.132;6.408;2022-10-16T00:18:02;8.80;;;2.58;;
59207;SDS011;44977;53.132;6.408;2022-10-16T00:23:04;8.15;;;2.30;;
59207;SDS011;44977;53.132;6.408;2022-10-16T00:28:05;8.18;;;2.55;;
59207;SDS011;44977;53.132;6.408;2022-10-16T00:33:05;10.13;;;2.67;;
59207;SDS011;44977;53.132;6.408;2022-10-16T00:38:06;7.53;;;2.45;;
59207;SDS011;44977;53.132;6.408;2022-10-16T00:43:14;10.52;;;2.47;;
59207;SDS011;44977;53.132;6.408;2022-10-16T00:48:33;7.60;;;2.40;;
59207;SDS011;44977;53.132;6.408;2022-10-16T00:53:34;8.57;;;2.15;;
59207;SDS011;44977;53.132;6.408;2022-10-16T00:58:35;8.55;;;2.50;;
59207;SDS011;44977;53.132;6.408;2022-10-16T01:03:36;9.48;;;2.42;;
59207;SDS011;44977;53.132;6.408;2022-10-16T01:13:42;6.90;;;1.85;;
59207;SDS011;44977;53.132;6.408;2022-10-16T01:18:48;7.10;;;2.22;;
59207;SDS011;44977;53.132;6.408;2022-10-16T01:29:36;6.97;;;1.90;;
59207;SDS011;44977;53.132;6.408;2022-10-16T01:34:55;6.85;;;1.98;;
59207;SDS011;44977;53.132;6.408;2022-10-16T01:40:00;7.80;;;2.20;;
59207;SDS011;44977;53.132;6.408;2022-10-16T01:45:06;9.15;;;2.30;;
59207;SDS011;44977;53.132;6.408;2022-10-16T01:50:08;9.65;;;2.35;;
59207;SDS011;44977;53.132;6.408;2022-10-16T01:55:10;6.88;;;2.10;;
59207;SDS011;44977;53.132;6.408;2022-10-16T02:00:13;6.15;;;2.00;;
59207;SDS011;44977;53.132;6.408;2022-10-16T02:05:32;7.90;;;2.90;;
59207;SDS011;44977;53.132;6.408;2022-10-16T02:10:38;7.25;;;2.10;;
59207;SDS011;44977;53.132;6.408;2022-10-16T02:15:39;6.63;;;2.10;;
59207;SDS011;44977;53.132;6.408;2022-10-16T02:26:12;6.07;;;2.40;;
59207;SDS011;44977;53.132;6.408;2022-10-16T02:31:18;7.25;;;2.30;;
59207;SDS011;44977;53.132;6.408;2022-10-16T02:36:25;5.53;;;2.05;;
59207;SDS011;44977;53.132;6.408;2022-10-16T02:41:27;4.20;;;1.70;;
59207;SDS011;44977;53.132;6.408;2022-10-16T02:46:27;6.07;;;1.95;;
59207;SDS011;44977;53.132;6.408;2022-10-16T02:51:28;10.27;;;2.33;;
59207;SDS011;44977;53.132;6.408;2022-10-16T02:56:29;6.75;;;1.90;;
59207;SDS011;44977;53.132;6.408;2022-10-16T03:01:30;6.38;;;2.15;;
59207;SDS011;44977;53.132;6.408;2022-10-16T03:06:31;6.07;;;2.10;;
59207;SDS011;44977;53.132;6.408;2022-10-16T03:11:32;5.35;;;1.70;;
59207;SDS011;44977;53.132;6.408;2022-10-16T03:16:32;6.93;;;1.88;;
59207;SDS011;44977;53.132;6.408;2022-10-16T03:21:33;6.07;;;2.20;;
59207;SDS011;44977;53.132;6.408;2022-10-16T03:26:34;5.07;;;1.70;;
59207;SDS011;44977;53.132;6.408;2022-10-16T03:31:34;5.28;;;1.90;;
59207;SDS011;44977;53.132;6.408;2022-10-16T03:36:35;6.63;;;1.98;;
59207;SDS011;44977;53.132;6.408;2022-10-16T03:41:36;6.43;;;1.92;;
59207;SDS011;44977;53.132;6.408;2022-10-16T03:46:37;6.72;;;1.98;;
59207;SDS011;44977;53.132;6.408;2022-10-16T03:51:37;5.95;;;2.10;;
59207;SDS011;44977;53.132;6.408;2022-10-16T03:56:38;6.07;;;2.10;;
59207;SDS011;44977;53.132;6.408;2022-10-16T04:01:40;7.50;;;2.30;;
59207;SDS011;44977;53.132;6.408;2022-10-16T04:06:40;7.45;;;2.05;;
59207;SDS011;44977;53.132;6.408;2022-10-16T04:11:41;5.95;;;2.15;;
59207;SDS011;44977;53.132;6.408;2022-10-16T04:16:42;8.02;;;2.50;;
59207;SDS011;44977;53.132;6.408;2022-10-16T04:21:42;6.28;;;2.30;;
59207;SDS011;44977;53.132;6.408;2022-10-16T04:26:43;4.53;;;1.92;;
59207;SDS011;44977;53.132;6.408;2022-10-16T04:31:44;5.10;;;2.15;;
59207;SDS011;44977;53.132;6.408;2022-10-16T04:36:46;6.95;;;2.40;;
59207;SDS011;44977;53.132;6.408;2022-10-16T04:41:49;8.02;;;2.20;;
59207;SDS011;44977;53.132;6.408;2022-10-16T04:46:50;6.25;;;2.10;;
59207;SDS011;44977;53.132;6.408;2022-10-16T04:51:51;7.22;;;2.42;;
59207;SDS011;44977;53.132;6.408;2022-10-16T04:56:52;9.93;;;2.45;;
59207;SDS011;44977;53.132;6.408;2022-10-16T05:01:52;5.88;;;2.60;;
59207;SDS011;44977;53.132;6.408;2022-10-16T05:06:53;6.30;;;2.53;;
59207;SDS011;44977;53.132;6.408;2022-10-16T05:11:54;7.00;;;2.70;;
59207;SDS011;44977;53.132;6.408;2022-10-16T05:16:54;9.23;;;2.88;;
59207;SDS011;44977;53.132;6.408;2022-10-16T05:21:55;7.65;;;2.83;;
59207;SDS011;44977;53.132;6.408;2022-10-16T05:26:56;6.78;;;2.90;;
59207;SDS011;44977;53.132;6.408;2022-10-16T05:31:57;7.28;;;2.80;;
59207;SDS011;44977;53.132;6.408;2022-10-16T05:36:57;7.97;;;3.00;;
59207;SDS011;44977;53.132;6.408;2022-10-16T05:41:58;6.75;;;2.97;;
59207;SDS011;44977;53.132;6.408;2022-10-16T05:46:58;7.72;;;2.70;;
59207;SDS011;44977;53.132;6.408;2022-10-16T05:51:59;8.88;;;3.00;;
59207;SDS011;44977;53.132;6.408;2022-10-16T05:57:00;10.00;;;3.05;;
59207;SDS011;44977;53.132;6.408;2022-10-16T06:02:02;6.90;;;2.97;;
59207;SDS011;44977;53.132;6.408;2022-10-16T06:07:02;10.25;;;3.50;;
59207;SDS011;44977;53.132;6.408;2022-10-16T06:12:03;8.57;;;3.05;;
59207;SDS011;44977;53.132;6.408;2022-10-16T06:17:04;8.15;;;3.40;;
59207;SDS011;44977;53.132;6.408;2022-10-16T06:22:04;8.77;;;3.33;;
59207;SDS011;44977;53.132;6.408;2022-10-16T06:27:06;9.45;;;3.67;;
59207;SDS011;44977;53.132;6.408;2022-10-16T06:32:06;11.00;;;3.80;;
59207;SDS011;44977;53.132;6.408;2022-10-16T06:37:07;9.75;;;3.50;;
59207;SDS011;44977;53.132;6.408;2022-10-16T06:42:08;7.28;;;3.15;;
59207;SDS011;44977;53.132;6.408;2022-10-16T06:47:08;8.30;;;3.13;;
59207;SDS011;44977;53.132;6.408;2022-10-16T06:52:09;7.20;;;3.05;;
59207;SDS011;44977;53.132;6.408;2022-10-16T06:57:10;7.57;;;3.35;;
59207;SDS011;44977;53.132;6.408;2022-10-16T07:02:11;7.63;;;3.13;;
59207;SDS011;44977;53.132;6.408;2022-10-16T07:07:11;7.43;;;3.33;;
59207;SDS011;44977;53.132;6.408;2022-10-16T07:12:12;8.88;;;2.97;;
59207;SDS011;44977;53.132;6.408;2022-10-16T07:17:12;7.78;;;3.08;;
59207;SDS011;44977;53.132;6.408;2022-10-16T07:22:13;7.95;;;3.30;;
59207;SDS011;44977;53.132;6.408;2022-10-16T07:27:14;8.15;;;3.30;;
59207;SDS011;44977;53.132;6.408;2022-10-16T07:32:16;8.23;;;3.28;;
59207;SDS011;44977;53.132;6.408;2022-10-16T07:37:17;7.43;;;3.30;;
59207;SDS011;44977;53.132;6.408;2022-10-16T07:42:18;7.22;;;2.92;;
59207;SDS011;44977;53.132;6.408;2022-10-16T07:47:20;8.32;;;3.55;;
59207;SDS011;44977;53.132;6.408;2022-10-16T07:52:20;8.38;;;3.38;;
59207;SDS011;44977;53.132;6.408;2022-10-16T07:57:21;7.20;;;3.20;;
59207;SDS011;44977;53.132;6.408;2022-10-16T08:02:22;7.40;;;3.10;;
59207;SDS011;44977;53.132;6.408;2022-10-16T08:07:22;7.55;;;3.45;;
59207;SDS011;44977;53.132;6.408;2022-10-16T08:12:23;8.02;;;3.20;;
59207;SDS011;44977;53.132;6.408;2022-10-16T08:17:24;7.50;;;3.20;;
59207;SDS011;44977;53.132;6.408;2022-10-16T08:22:24;8.20;;;2.55;;
59207;SDS011;44977;53.132;6.408;2022-10-16T08:27:30;7.32;;;2.22;;
59207;SDS011;44977;53.132;6.408;2022-10-16T08:32:32;7.95;;;2.40;;
59207;SDS011;44977;53.132;6.408;2022-10-16T08:37:32;8.38;;;2.10;;
59207;SDS011;44977;53.132;6.408;2022-10-16T08:52:43;7.90;;;2.00;;
59207;SDS011;44977;53.132;6.408;2022-10-16T08:57:45;7.75;;;1.88;;
59207;SDS011;44977;53.132;6.408;2022-10-16T09:02:49;5.68;;;1.70;;
59207;SDS011;44977;53.132;6.408;2022-10-16T09:13:21;8.20;;;2.13;;
59207;SDS011;44977;53.132;6.408;2022-10-16T09:23:57;7.57;;;2.13;;
59207;SDS011;44977;53.132;6.408;2022-10-16T09:29:14;8.35;;;1.98;;
59207;SDS011;44977;53.132;6.408;2022-10-16T09:34:23;8.25;;;2.35;;
59207;SDS011;44977;53.132;6.408;2022-10-16T09:39:46;9.52;;;2.40;;
59207;SDS011;44977;53.132;6.408;2022-10-16T09:44:51;8.95;;;2.40;;
59207;SDS011;44977;53.132;6.408;2022-10-16T09:49:57;10.48;;;2.40;;
59207;SDS011;44977;53.132;6.408;2022-10-16T09:55:12;9.05;;;2.28;;
59207;SDS011;44977;53.132;6.408;2022-10-16T10:00:16;11.65;;;2.45;;
59207;SDS011;44977;53.132;6.408;2022-10-16T10:10:25;12.00;;;2.38;;
59207;SDS011;44977;53.132;6.408;2022-10-16T10:15:33;10.95;;;2.67;;
59207;SDS011;44977;53.132;6.408;2022-10-16T10:20:36;11.35;;;2.13;;
59207;SDS011;44977;53.132;6.408;2022-10-16T10:25:41;13.45;;;2.72;;
59207;SDS011;44977;53.132;6.408;2022-10-16T10:31:08;11.18;;;2.38;;
59207;SDS011;44977;53.132;6.408;2022-10-16T10:46:32;14.55;;;3.13;;
59207;SDS011;44977;53.132;6.408;2022-10-16T10:51:40;14.25;;;2.65;;
59207;SDS011;44977;53.132;6.408;2022-10-16T10:57:07;9.65;;;2.20;;
59207;SDS011;44977;53.132;6.408;2022-10-16T11:02:17;13.63;;;2.63;;
59207;SDS011;44977;53.132;6.408;2022-10-16T11:12:31;11.90;;;2.72;;
59207;SDS011;44977;53.132;6.408;2022-10-16T11:17:42;13.52;;;2.90;;
59207;SDS011;44977;53.132;6.408;2022-10-16T11:22:49;12.70;;;2.22;;
59207;SDS011;44977;53.132;6.408;2022-10-16T11:28:16;12.90;;;2.83;;
59207;SDS011;44977;53.132;6.408;2022-10-16T11:38:41;13.15;;;2.30;;
59207;SDS011;44977;53.132;6.408;2022-10-16T11:43:56;8.90;;;1.92;;
59207;SDS011;44977;53.132;6.408;2022-10-16T11:49:07;12.50;;;2.90;;
59207;SDS011;44977;53.132;6.408;2022-10-16T11:59:47;11.63;;;2.13;;
59207;SDS011;44977;53.132;6.408;2022-10-16T12:10:35;11.13;;;2.40;;
59207;SDS011;44977;53.132;6.408;2022-10-16T12:15:37;11.30;;;2.67;;
59207;SDS011;44977;53.132;6.408;2022-10-16T12:20:38;10.90;;;2.17;;
59207;SDS011;44977;53.132;6.408;2022-10-16T12:25:53;9.93;;;2.35;;
59207;SDS011;44977;53.132;6.408;2022-10-16T12:31:02;10.93;;;2.28;;
59207;SDS011;44977;53.132;6.408;2022-10-16T12:36:16;13.18;;;3.10;;
59207;SDS011;44977;53.132;6.408;2022-10-16T12:41:32;11.07;;;2.42;;
59207;SDS011;44977;53.132;6.408;2022-10-16T12:46:37;12.40;;;2.47;;
59207;SDS011;44977;53.132;6.408;2022-10-16T12:51:40;10.93;;;2.05;;
59207;SDS011;44977;53.132;6.408;2022-10-16T13:12:58;11.27;;;2.50;;
59207;SDS011;44977;53.132;6.408;2022-10-16T13:18:16;12.48;;;2.67;;
59207;SDS011;44977;53.132;6.408;2022-10-16T13:23:27;11.40;;;2.75;;
59207;SDS011;44977;53.132;6.408;2022-10-16T13:28:34;13.13;;;2.75;;
59207;SDS011;44977;53.132;6.408;2022-10-16T13:33:39;12.80;;;2.60;;
59207;SDS011;44977;53.132;6.408;2022-10-16T13:38:42;14.52;;;3.13;;
59207;SDS011;44977;53.132;6.408;2022-10-16T13:43:46;12.90;;;2.78;;
59207;SDS011;44977;53.132;6.408;2022-10-16T13:48:58;13.85;;;3.25;;
59207;SDS011;44977;53.132;6.408;2022-10-16T13:54:00;13.10;;;2.75;;
59207;SDS011;44977;53.132;6.408;2022-10-16T13:59:02;12.43;;;2.90;;
59207;SDS011;44977;53.132;6.408;2022-10-16T14:04:08;12.27;;;2.95;;
59207;SDS011;44977;53.132;6.408;2022-10-16T14:19:40;11.88;;;3.00;;
59207;SDS011;44977;53.132;6.408;2022-10-16T14:24:45;12.80;;;2.92;;
59207;SDS011;44977;53.132;6.408;2022-10-16T14:29:46;11.88;;;2.47;;
59207;SDS011;44977;53.132;6.408;2022-10-16T14:34:52;13.32;;;2.92;;
59207;SDS011;44977;53.132;6.408;2022-10-16T14:39:54;14.88;;;2.90;;
59207;SDS011;44977;53.132;6.408;2022-10-16T14:44:55;11.18;;;2.78;;
59207;SDS011;44977;53.132;6.408;2022-10-16T14:49:56;13.43;;;2.90;;
59207;SDS011;44977;53.132;6.408;2022-10-16T14:54:59;12.63;;;2.95;;
59207;SDS011;44977;53.132;6.408;2022-10-16T15:00:00;12.23;;;2.72;;
59207;SDS011;44977;53.132;6.408;2022-10-16T15:05:04;13.25;;;4.30;;
59207;SDS011;44977;53.132;6.408;2022-10-16T15:10:13;12.98;;;3.80;;
59207;SDS011;44977;53.132;6.408;2022-10-16T15:20:32;18.05;;;6.60;;
59207;SDS011;44977;53.132;6.408;2022-10-16T15:30:42;19.45;;;6.88;;
59207;SDS011;44977;53.132;6.408;2022-10-16T15:35:48;12.27;;;3.05;;
59207;SDS011;44977;53.132;6.408;2022-10-16T15:40:50;14.02;;;2.88;;
59207;SDS011;44977;53.132;6.408;2022-10-16T15:45:58;11.63;;;3.03;;
59207;SDS011;44977;53.132;6.408;2022-10-16T15:51:05;13.18;;;2.60;;
59207;SDS011;44977;53.132;6.408;2022-10-16T15:56:08;12.05;;;2.30;;
59207;SDS011;44977;53.132;6.408;2022-10-16T16:01:10;11.07;;;2.45;;
59207;SDS011;44977;53.132;6.408;2022-10-16T16:06:12;10.90;;;2.70;;
59207;SDS011;44977;53.132;6.408;2022-10-16T16:11:15;13.68;;;3.80;;
59207;SDS011;44977;53.132;6.408;2022-10-16T16:16:17;11.18;;;2.97;;
59207;SDS011;44977;53.132;6.408;2022-10-16T16:21:19;12.20;;;3.65;;
59207;SDS011;44977;53.132;6.408;2022-10-16T16:26:23;11.38;;;2.97;;
59207;SDS011;44977;53.132;6.408;2022-10-16T16:31:34;13.07;;;4.00;;
59207;SDS011;44977;53.132;6.408;2022-10-16T16:36:36;14.15;;;4.22;;
59207;SDS011;44977;53.132;6.408;2022-10-16T16:41:37;11.32;;;3.80;;
59207;SDS011;44977;53.132;6.408;2022-10-16T16:46:38;18.70;;;5.00;;
59207;SDS011;44977;53.132;6.408;2022-10-16T16:51:42;11.52;;;4.75;;
59207;SDS011;44977;53.132;6.408;2022-10-16T16:56:43;12.70;;;5.22;;
59207;SDS011;44977;53.132;6.408;2022-10-16T17:01:44;12.77;;;4.30;;
59207;SDS011;44977;53.132;6.408;2022-10-16T17:06:45;12.98;;;4.18;;
59207;SDS011;44977;53.132;6.408;2022-10-16T17:11:46;16.65;;;6.75;;
59207;SDS011;44977;53.132;6.408;2022-10-16T17:16:48;16.75;;;8.20;;
59207;SDS011;44977;53.132;6.408;2022-10-16T17:21:49;14.88;;;6.40;;
59207;SDS011;44977;53.132;6.408;2022-10-16T17:26:50;20.67;;;11.02;;
59207;SDS011;44977;53.132;6.408;2022-10-16T17:31:51;25.38;;;14.10;;
59207;SDS011;44977;53.132;6.408;2022-10-16T17:36:52;29.23;;;19.42;;
59207;SDS011;44977;53.132;6.408;2022-10-16T17:41:53;31.63;;;22.55;;
59207;SDS011;44977;53.132;6.408;2022-10-16T17:46:54;20.60;;;12.35;;
59207;SDS011;44977;53.132;6.408;2022-10-16T17:51:55;17.13;;;10.13;;
59207;SDS011;44977;53.132;6.408;2022-10-16T17:56:56;17.80;;;10.38;;
59207;SDS011;44977;53.132;6.408;2022-10-16T18:01:56;16.60;;;8.98;;
59207;SDS011;44977;53.132;6.408;2022-10-16T18:06:57;18.10;;;10.00;;
59207;SDS011;44977;53.132;6.408;2022-10-16T18:11:59;19.05;;;11.88;;
59207;SDS011;44977;53.132;6.408;2022-10-16T18:17:00;19.00;;;13.73;;
59207;SDS011;44977;53.132;6.408;2022-10-16T18:22:01;25.05;;;22.33;;
59207;SDS011;44977;53.132;6.408;2022-10-16T18:27:02;36.17;;;31.42;;
59207;SDS011;44977;53.132;6.408;2022-10-16T18:32:03;23.60;;;18.83;;
59207;SDS011;44977;53.132;6.408;2022-10-16T18:37:04;23.67;;;16.52;;
59207;SDS011;44977;53.132;6.408;2022-10-16T18:42:04;22.45;;;16.42;;
59207;SDS011;44977;53.132;6.408;2022-10-16T18:47:05;21.05;;;14.70;;
59207;SDS011;44977;53.132;6.408;2022-10-16T18:52:05;16.50;;;8.90;;
59207;SDS011;44977;53.132;6.408;2022-10-16T18:57:06;16.08;;;8.23;;
59207;SDS011;44977;53.132;6.408;2022-10-16T19:02:11;12.85;;;7.05;;
59207;SDS011;44977;53.132;6.408;2022-10-16T19:07:12;17.42;;;9.98;;
59207;SDS011;44977;53.132;6.408;2022-10-16T19:12:14;24.33;;;16.25;;
59207;SDS011;44977;53.132;6.408;2022-10-16T19:17:15;22.35;;;12.80;;
59207;SDS011;44977;53.132;6.408;2022-10-16T19:22:16;20.27;;;9.35;;
59207;SDS011;44977;53.132;6.408;2022-10-16T19:27:26;17.83;;;8.00;;
59207;SDS011;44977;53.132;6.408;2022-10-16T19:32:27;17.85;;;8.48;;
59207;SDS011;44977;53.132;6.408;2022-10-16T19:37:28;15.73;;;8.23;;
59207;SDS011;44977;53.132;6.408;2022-10-16T19:42:28;14.13;;;7.45;;
59207;SDS011;44977;53.132;6.408;2022-10-16T19:47:30;12.60;;;6.60;;
59207;SDS011;44977;53.132;6.408;2022-10-16T19:52:31;14.48;;;5.97;;
59207;SDS011;44977;53.132;6.408;2022-10-16T19:57:35;16.73;;;6.43;;
59207;SDS011;44977;53.132;6.408;2022-10-16T20:02:36;16.55;;;6.00;;
59207;SDS011;44977;53.132;6.408;2022-10-16T20:07:37;13.95;;;5.90;;
59207;SDS011;44977;53.132;6.408;2022-10-16T20:12:38;12.85;;;5.25;;
59207;SDS011;44977;53.132;6.408;2022-10-16T20:17:38;14.43;;;6.38;;
59207;SDS011;44977;53.132;6.408;2022-10-16T20:22:40;15.55;;;5.63;;
59207;SDS011;44977;53.132;6.408;2022-10-16T20:27:41;13.93;;;5.85;;
59207;SDS011;44977;53.132;6.408;2022-10-16T20:32:42;13.65;;;6.00;;
59207;SDS011;44977;53.132;6.408;2022-10-16T20:37:43;12.55;;;5.20;;
59207;SDS011;44977;53.132;6.408;2022-10-16T20:42:47;14.90;;;6.50;;
59207;SDS011;44977;53.132;6.408;2022-10-16T20:47:48;13.55;;;5.45;;
59207;SDS011;44977;53.132;6.408;2022-10-16T20:52:49;14.45;;;5.85;;
59207;SDS011;44977;53.132;6.408;2022-10-16T20:57:50;14.38;;;5.50;;
59207;SDS011;44977;53.132;6.408;2022-10-16T21:02:51;13.63;;;5.72;;
59207;SDS011;44977;53.132;6.408;2022-10-16T21:07:52;16.25;;;5.20;;
59207;SDS011;44977;53.132;6.408;2022-10-16T21:12:53;12.45;;;4.60;;
59207;SDS011;44977;53.132;6.408;2022-10-16T21:17:54;12.50;;;4.38;;
59207;SDS011;44977;53.132;6.408;2022-10-16T21:22:54;12.25;;;4.10;;
59207;SDS011;44977;53.132;6.408;2022-10-16T21:27:55;13.45;;;4.78;;
59207;SDS011;44977;53.132;6.408;2022-10-16T21:32:56;13.52;;;4.32;;
59207;SDS011;44977;53.132;6.408;2022-10-16T21:37:56;12.25;;;4.20;;
59207;SDS011;44977;53.132;6.408;2022-10-16T21:42:57;12.85;;;4.25;;
59207;SDS011;44977;53.132;6.408;2022-10-16T21:47:58;16.63;;;4.80;;
59207;SDS011;44977;53.132;6.408;2022-10-16T21:52:59;12.30;;;3.95;;
59207;SDS011;44977;53.132;6.408;2022-10-16T21:57:59;13.50;;;4.25;;
59207;SDS011;44977;53.132;6.408;2022-10-16T22:03:00;10.13;;;4.13;;
59207;SDS011;44977;53.132;6.408;2022-10-16T22:08:01;11.02;;;4.20;;
59207;SDS011;44977;53.132;6.408;2022-10-16T22:13:01;12.93;;;4.10;;
59207;SDS011;44977;53.132;6.408;2022-10-16T22:18:02;11.90;;;4.70;;
59207;SDS011;44977;53.132;6.408;2022-10-16T22:23:03;11.13;;;4.45;;
59207;SDS011;44977;53.132;6.408;2022-10-16T22:28:03;13.52;;;4.40;;
59207;SDS011;44977;53.132;6.408;2022-10-16T22:33:04;12.65;;;4.63;;
59207;SDS011;44977;53.132;6.408;2022-10-16T22:38:05;11.68;;;4.57;;
59207;SDS011;44977;53.132;6.408;2022-10-16T22:43:07;10.30;;;4.60;;
59207;SDS011;44977;53.132;6.408;2022-10-16T22:48:07;14.10;;;4.78;;
59207;SDS011;44977;53.132;6.408;2022-10-16T22:53:08;11.27;;;4.55;;
59207;SDS011;44977;53.132;6.408;2022-10-16T22:58:09;11.93;;;4.18;;
59207;SDS011;44977;53.132;6.408;2022-10-16T23:03:09;11.43;;;4.28;;
59207;SDS011;44977;53.132;6.408;2022-10-16T23:08:10;11.00;;;4.30;;
59207;SDS011;44977;53.132;6.408;2022-10-16T23:13:12;9.32;;;4.20;;
59207;SDS011;44977;53.132;6.408;2022-10-16T23:18:13;14.25;;;4.50;;
59207;SDS011;44977;53.132;6.408;2022-10-16T23:23:13;13.43;;;4.15;;
59207;SDS011;44977;53.132;6.408;2022-10-16T23:28:14;12.32;;;4.47;;
59207;SDS011;44977;53.132;6.408;2022-10-16T23:33:15;9.63;;;4.15;;
59207;SDS011;44977;53.132;6.408;2022-10-16T23:38:15;15.02;;;4.60;;
59207;SDS011;44977;53.132;6.408;2022-10-16T23:43:16;11.32;;;4.28;;
59207;SDS011;44977;53.132;6.408;2022-10-16T23:48:17;11.05;;;4.15;;
59207;SDS011;44977;53.132;6.408;2022-10-16T23:53:17;14.07;;;4.60;;
59207;SDS011;44977;53.132;6.408;2022-10-16T23:58:18;11.15;;;4.03;;
